createdAt,value
2023-06-19T00:01:10.422Z,5.80
2023-06-19T00:03:41.148Z,5.45
2023-06-19T00:06:22.874Z,5.45
2023-06-19T00:08:52.269Z,5.25
2023-06-19T00:11:20.872Z,5.68
2023-06-19T00:13:49.564Z,5.95
2023-06-19T00:16:23.302Z,5.50
2023-06-19T00:18:57.399Z,5.85
2023-06-19T00:21:26.916Z,5.80
2023-06-19T00:24:01.288Z,5.30
2023-06-19T00:26:31.801Z,5.53
2023-06-19T00:29:01.879Z,6.05
2023-06-19T00:31:29.848Z,5.20
2023-06-19T00:33:59.692Z,5.05
2023-06-19T00:36:28.174Z,4.93
2023-06-19T00:38:57.562Z,5.20
2023-06-19T00:41:25.815Z,5.50
2023-06-19T00:43:56.724Z,4.97
2023-06-19T00:46:24.566Z,4.97
2023-06-19T00:48:52.540Z,5.32
2023-06-19T00:51:22.408Z,5.90
2023-06-19T00:53:50.357Z,5.13
2023-06-19T00:56:23.701Z,5.28
2023-06-19T00:58:52.021Z,5.82
2023-06-19T01:01:20.305Z,5.30
2023-06-19T01:03:48.247Z,5.13
2023-06-19T01:06:17.639Z,5.03
2023-06-19T01:08:51.351Z,5.38
2023-06-19T01:11:26.628Z,5.57
2023-06-19T01:13:59.186Z,5.30
2023-06-19T01:16:28.903Z,5.38
2023-06-19T01:18:57.451Z,5.68
2023-06-19T01:21:25.399Z,4.93
2023-06-19T01:23:54.519Z,5.40
2023-06-19T01:26:27.371Z,5.15
2023-06-19T01:28:55.870Z,5.10
2023-06-19T01:31:25.561Z,5.43
2023-06-19T01:33:53.745Z,5.30
2023-06-19T01:36:34.179Z,5.75
2023-06-19T01:39:03.326Z,5.32
2023-06-19T01:41:31.159Z,5.40
2023-06-19T01:43:58.869Z,5.32
2023-06-19T01:46:26.773Z,5.78
2023-06-19T01:48:54.794Z,5.22
2023-06-19T01:51:22.830Z,6.10
2023-06-19T01:53:50.722Z,5.88
2023-06-19T01:56:20.079Z,5.95
2023-06-19T01:58:47.834Z,5.85
2023-06-19T02:01:15.983Z,6.00
2023-06-19T02:03:44.084Z,6.57
2023-06-19T02:06:12.085Z,6.47
2023-06-19T02:08:40.817Z,6.32
2023-06-19T02:11:09.362Z,6.65
2023-06-19T02:13:46.551Z,6.70
2023-06-19T02:16:14.305Z,6.20
2023-06-19T02:18:42.314Z,6.30
2023-06-19T02:21:10.574Z,6.10
2023-06-19T02:23:38.448Z,6.40
2023-06-19T02:26:06.149Z,6.53
2023-06-19T02:28:34.190Z,6.63
2023-06-19T02:31:06.439Z,6.68
2023-06-19T02:33:34.408Z,7.10
2023-06-19T02:36:02.914Z,6.80
2023-06-19T02:38:31.383Z,7.22
2023-06-19T02:41:01.529Z,6.68
2023-06-19T02:43:29.739Z,7.05
2023-06-19T02:45:57.584Z,7.10
2023-06-19T02:48:26.958Z,7.30
2023-06-19T02:50:54.731Z,6.63
2023-06-19T02:53:22.578Z,6.20
2023-06-19T02:55:50.409Z,6.75
2023-06-19T02:58:18.143Z,7.00
2023-06-19T03:00:48.352Z,6.43
2023-06-19T03:03:16.114Z,6.18
2023-06-19T03:05:45.468Z,5.63
2023-06-19T03:08:13.396Z,5.72
2023-06-19T03:10:41.120Z,5.75
2023-06-19T03:13:08.976Z,5.32
2023-06-19T03:15:36.828Z,5.43
2023-06-19T03:18:07.854Z,5.07
2023-06-19T03:20:35.595Z,5.60
2023-06-19T03:23:04.797Z,5.50
2023-06-19T03:25:35.915Z,5.78
2023-06-19T03:28:04.009Z,5.53
2023-06-19T03:30:32.093Z,6.05
2023-06-19T03:33:01.192Z,5.70
2023-06-19T03:35:29.824Z,5.82
2023-06-19T03:37:57.723Z,5.60
2023-06-19T03:40:26.790Z,4.82
2023-06-19T03:42:54.636Z,5.07
2023-06-19T03:45:22.340Z,5.20
2023-06-19T03:47:50.199Z,4.93
2023-06-19T03:50:21.140Z,4.70
2023-06-19T03:52:49.567Z,4.90
2023-06-19T03:55:17.368Z,4.60
2023-06-19T03:57:46.710Z,4.50
2023-06-19T04:00:16.691Z,4.32
2023-06-19T04:02:44.542Z,4.70
2023-06-19T04:05:12.309Z,4.35
2023-06-19T04:07:40.151Z,4.20
2023-06-19T04:10:08.980Z,4.70
2023-06-19T04:12:36.771Z,4.18
2023-06-19T04:15:07.019Z,4.63
2023-06-19T04:17:34.986Z,4.07
2023-06-19T04:20:03.417Z,4.05
2023-06-19T04:22:31.289Z,3.65
2023-06-19T04:24:59.009Z,3.50
2023-06-19T04:27:26.865Z,3.60
2023-06-19T04:29:54.688Z,3.53
2023-06-19T04:32:24.014Z,3.67
2023-06-19T04:34:51.782Z,3.15
2023-06-19T04:37:20.324Z,3.23
2023-06-19T04:39:48.083Z,3.60
2023-06-19T04:42:20.553Z,3.40
2023-06-19T04:44:49.397Z,3.30
2023-06-19T04:47:19.412Z,3.42
2023-06-19T04:49:48.691Z,3.22
2023-06-19T04:52:16.539Z,3.80
2023-06-19T04:54:44.244Z,3.70
2023-06-19T04:57:12.084Z,3.25
2023-06-19T04:59:39.786Z,3.10
2023-06-19T05:02:08.486Z,3.28
2023-06-19T05:04:36.414Z,3.33
2023-06-19T05:07:05.722Z,3.20
2023-06-19T05:09:33.875Z,3.15
2023-06-19T05:12:01.806Z,3.53
2023-06-19T05:14:29.731Z,3.20
2023-06-19T05:16:57.526Z,3.30
2023-06-19T05:19:26.695Z,3.20
2023-06-19T05:21:54.457Z,2.90
2023-06-19T05:24:25.904Z,2.78
2023-06-19T05:26:53.660Z,3.25
2023-06-19T05:29:21.480Z,2.95
2023-06-19T05:31:49.436Z,3.20
2023-06-19T05:34:17.318Z,2.78
2023-06-19T05:36:46.202Z,3.20
2023-06-19T05:39:14.063Z,2.90
2023-06-19T05:41:43.156Z,2.90
2023-06-19T05:44:11.002Z,2.97
2023-06-19T05:46:38.808Z,3.20
2023-06-19T05:49:06.635Z,2.42
2023-06-19T05:51:34.365Z,4.13
2023-06-19T05:54:04.843Z,3.17
2023-06-19T05:56:34.290Z,2.85
2023-06-19T05:59:03.778Z,2.78
2023-06-19T06:01:31.548Z,2.85
2023-06-19T06:03:59.480Z,2.60
2023-06-19T06:06:27.742Z,3.10
2023-06-19T06:08:56.040Z,3.00
2023-06-19T06:11:24.078Z,2.92
2023-06-19T06:13:51.787Z,2.95
2023-06-19T06:16:21.108Z,2.92
2023-06-19T06:18:49.122Z,2.85
2023-06-19T06:21:17.187Z,2.47
2023-06-19T06:23:45.862Z,2.60
2023-06-19T06:26:13.895Z,2.47
2023-06-19T06:28:42.359Z,2.65
2023-06-19T06:36:33.873Z,2.33
2023-06-19T06:39:03.652Z,2.92
2023-06-19T06:41:31.448Z,2.55
2023-06-19T06:43:59.291Z,2.90
2023-06-19T06:46:27.196Z,2.30
2023-06-19T06:48:55.075Z,2.65
2023-06-19T06:51:24.348Z,2.40
2023-06-19T06:53:52.975Z,2.10
2023-06-19T06:56:20.706Z,1.98
2023-06-19T06:58:48.468Z,2.10
2023-06-19T07:01:16.327Z,2.25
2023-06-19T07:03:47.689Z,1.88
2023-06-19T07:06:15.654Z,2.08
2023-06-19T07:08:48.481Z,1.88
2023-06-19T07:11:16.384Z,1.80
2023-06-19T07:13:44.159Z,2.20
2023-06-19T07:16:12.646Z,2.40
2023-06-19T07:18:43.028Z,1.85
2023-06-19T07:21:15.035Z,2.60
2023-06-19T07:23:47.119Z,2.15
2023-06-19T07:26:17.010Z,2.35
2023-06-19T07:28:44.822Z,2.83
2023-06-19T07:31:12.576Z,7.75
2023-06-19T07:33:40.766Z,2.20
2023-06-19T07:36:09.382Z,2.30
2023-06-19T07:38:37.208Z,2.30
2023-06-19T07:41:08.424Z,2.17
2023-06-19T07:43:36.218Z,2.28
2023-06-19T07:46:04.134Z,2.50
2023-06-19T07:48:32.237Z,2.60
2023-06-19T07:50:59.937Z,2.50
2023-06-19T07:53:27.765Z,2.60
2023-06-19T07:55:55.897Z,2.33
2023-06-19T07:58:24.970Z,2.85
2023-06-19T08:00:53.184Z,2.65
2023-06-19T08:03:21.082Z,2.63
2023-06-19T08:05:48.914Z,3.00
2023-06-19T08:08:17.710Z,2.80
2023-06-19T08:10:45.594Z,2.55
2023-06-19T08:13:14.343Z,2.60
2023-06-19T08:15:45.637Z,2.63
2023-06-19T08:18:13.473Z,2.45
2023-06-19T08:20:41.398Z,2.70
2023-06-19T08:23:09.081Z,3.30
2023-06-19T08:25:37.804Z,2.38
2023-06-19T08:28:05.949Z,2.60
2023-06-19T08:30:37.306Z,2.85
2023-06-19T08:33:11.412Z,2.55
2023-06-19T08:35:39.291Z,2.20
2023-06-19T08:38:07.320Z,2.55
2023-06-19T08:40:35.318Z,2.30
2023-06-19T08:43:03.074Z,2.80
2023-06-19T08:45:31.127Z,2.88
2023-06-19T08:48:01.882Z,2.60
2023-06-19T08:50:31.407Z,2.75
2023-06-19T08:52:59.115Z,2.47
2023-06-19T08:55:26.834Z,2.80
2023-06-19T08:57:54.627Z,3.15
2023-06-19T09:00:27.612Z,2.88
2023-06-19T09:03:12.541Z,3.10
2023-06-19T09:05:51.400Z,3.30
2023-06-19T09:08:19.690Z,2.75
2023-06-19T09:10:57.512Z,2.75
2023-06-19T09:13:25.260Z,3.25
2023-06-19T09:15:59.868Z,3.05
2023-06-19T09:18:27.586Z,3.17
2023-06-19T09:20:56.851Z,3.70
2023-06-19T09:23:24.752Z,3.90
2023-06-19T09:25:53.345Z,3.00
2023-06-19T09:28:21.925Z,2.67
2023-06-19T09:30:57.274Z,2.75
2023-06-19T09:33:25.658Z,2.97
2023-06-19T09:35:53.431Z,2.85
2023-06-19T09:38:23.396Z,3.10
2023-06-19T09:40:51.145Z,2.70
2023-06-19T09:43:21.555Z,2.97
2023-06-19T09:45:50.253Z,3.58
2023-06-19T09:48:21.731Z,4.22
2023-06-19T09:50:51.210Z,3.13
2023-06-19T09:53:19.812Z,3.67
2023-06-19T09:55:49.394Z,3.83
2023-06-19T09:58:17.911Z,3.58
2023-06-19T10:00:45.700Z,3.72
2023-06-19T10:03:14.375Z,4.00
2023-06-19T10:05:42.419Z,4.15
2023-06-19T10:08:10.275Z,3.80
2023-06-19T10:10:38.285Z,4.53
2023-06-19T10:13:15.628Z,3.72
2023-06-19T10:15:43.917Z,4.30
2023-06-19T10:18:17.180Z,3.75
2023-06-19T10:20:46.346Z,4.00
2023-06-19T10:23:20.390Z,3.95
2023-06-19T10:25:50.405Z,3.75
2023-06-19T10:28:20.308Z,4.07
2023-06-19T10:30:55.002Z,4.05
2023-06-19T10:33:23.997Z,4.07
2023-06-19T10:35:52.080Z,4.63
2023-06-19T10:38:20.266Z,3.97
2023-06-19T10:40:48.753Z,4.05
2023-06-19T10:43:25.614Z,4.10
2023-06-19T10:45:54.087Z,4.07
2023-06-19T10:48:22.666Z,4.35
2023-06-19T10:51:01.677Z,4.00
2023-06-19T10:53:33.636Z,4.18
2023-06-19T10:56:02.900Z,4.22
2023-06-19T10:58:33.464Z,4.20
2023-06-19T11:01:13.459Z,4.13
2023-06-19T11:03:46.438Z,4.90
2023-06-19T11:06:15.025Z,4.60
2023-06-19T11:08:43.909Z,4.57
2023-06-19T11:11:12.064Z,4.72
2023-06-19T11:13:45.165Z,4.60
2023-06-19T11:16:25.472Z,4.25
2023-06-19T11:18:58.398Z,4.35
2023-06-19T11:21:34.184Z,4.60
2023-06-19T11:24:03.064Z,4.38
2023-06-19T11:26:32.393Z,4.50
2023-06-19T11:29:04.813Z,4.43
2023-06-19T11:31:32.507Z,4.55
2023-06-19T11:34:00.803Z,4.03
2023-06-19T11:36:28.759Z,4.60
2023-06-19T11:38:56.590Z,4.38
2023-06-19T11:41:28.184Z,4.47
2023-06-19T11:44:02.187Z,5.15
2023-06-19T11:46:33.167Z,4.55
2023-06-19T11:49:11.189Z,4.40
2023-06-19T11:51:38.983Z,6.75
2023-06-19T11:54:07.708Z,4.60
2023-06-19T11:56:35.941Z,4.95
2023-06-19T11:59:05.315Z,4.88
2023-06-19T12:01:33.630Z,4.82
2023-06-19T12:04:01.943Z,5.30
2023-06-19T12:06:29.898Z,4.30
2023-06-19T12:09:00.349Z,5.13
2023-06-19T12:11:28.030Z,4.70
2023-06-19T12:13:57.043Z,4.88
2023-06-19T12:16:26.403Z,4.55
2023-06-19T12:18:55.224Z,4.30
2023-06-19T12:21:35.595Z,4.53
2023-06-19T12:24:07.037Z,4.40
2023-06-19T12:26:38.132Z,4.10
2023-06-19T12:29:06.372Z,5.28
2023-06-19T12:36:51.604Z,4.57
2023-06-19T12:39:19.334Z,5.10
2023-06-19T12:41:47.159Z,4.68
2023-06-19T12:44:14.989Z,4.53
2023-06-19T12:46:42.813Z,4.70
2023-06-19T12:49:10.727Z,4.95
2023-06-19T12:51:38.495Z,4.75
2023-06-19T12:54:07.601Z,4.80
2023-06-19T12:56:35.380Z,4.32
2023-06-19T12:59:03.136Z,4.90
2023-06-19T13:01:30.903Z,5.10
2023-06-19T13:03:58.803Z,4.22
2023-06-19T13:06:26.762Z,4.40
2023-06-19T13:08:54.688Z,4.75
2023-06-19T13:11:23.800Z,4.78
2023-06-19T13:13:52.499Z,4.68
2023-06-19T13:16:30.215Z,4.22
2023-06-19T13:19:08.196Z,6.35
2023-06-19T13:21:36.925Z,4.25
2023-06-19T13:24:05.084Z,4.85
2023-06-19T13:26:34.232Z,4.70
2023-06-19T13:29:02.013Z,4.63
2023-06-19T13:31:29.891Z,4.43
2023-06-19T13:34:01.111Z,4.68
2023-06-19T13:36:28.892Z,4.70
2023-06-19T13:38:56.664Z,4.72
2023-06-19T13:41:25.093Z,4.63
2023-06-19T13:43:54.972Z,4.95
2023-06-19T13:46:23.685Z,4.47
2023-06-19T13:48:52.503Z,4.22
2023-06-19T13:51:20.604Z,4.53
2023-06-19T13:53:48.320Z,4.65
2023-06-19T13:56:16.768Z,4.22
2023-06-19T13:58:44.548Z,4.22
2023-06-19T14:01:13.632Z,4.45
2023-06-19T14:03:42.430Z,4.47
2023-06-19T14:06:10.210Z,4.50
2023-06-19T14:08:37.976Z,4.35
2023-06-19T14:11:05.821Z,4.72
2023-06-19T14:13:33.976Z,4.30
2023-06-19T14:16:01.703Z,4.32
2023-06-19T14:18:30.898Z,4.30
2023-06-19T14:20:58.770Z,4.03
2023-06-19T14:23:26.511Z,4.68
2023-06-19T14:25:54.330Z,4.78
2023-06-19T14:28:22.098Z,3.90
2023-06-19T14:30:49.849Z,3.85
2023-06-19T14:33:17.648Z,4.30
2023-06-19T14:35:47.089Z,3.72
2023-06-19T14:38:15.493Z,4.30
2023-06-19T14:40:43.607Z,3.95
2023-06-19T14:43:11.371Z,3.55
2023-06-19T14:45:41.060Z,4.05
2023-06-19T14:48:08.928Z,3.80
2023-06-19T14:50:36.764Z,3.72
2023-06-19T14:53:05.945Z,3.50
2023-06-19T14:55:33.711Z,4.30
2023-06-19T14:58:01.527Z,4.97
2023-06-19T15:00:29.266Z,4.97
2023-06-19T15:02:57.185Z,4.78
2023-06-19T15:05:24.985Z,4.32
2023-06-19T15:07:53.426Z,4.05
2023-06-19T15:10:23.041Z,4.20
2023-06-19T15:12:51.121Z,3.45
2023-06-19T15:15:18.895Z,4.32
2023-06-19T15:17:46.617Z,3.35
2023-06-19T15:20:18.029Z,3.60
2023-06-19T15:22:45.861Z,4.30
2023-06-19T15:25:13.640Z,4.40
2023-06-19T15:27:42.963Z,4.03
2023-06-19T15:30:11.632Z,4.13
2023-06-19T15:32:39.432Z,3.95
2023-06-19T15:35:08.192Z,4.03
2023-06-19T15:37:35.911Z,4.15
2023-06-19T15:40:04.050Z,4.38
2023-06-19T15:42:32.491Z,3.80
2023-06-19T15:45:01.840Z,3.88
2023-06-19T15:47:29.713Z,3.38
2023-06-19T15:49:57.589Z,4.13
2023-06-19T15:52:25.639Z,3.92
2023-06-19T15:54:53.502Z,4.40
2023-06-19T15:57:22.298Z,3.90
2023-06-19T15:59:52.840Z,3.75
2023-06-19T16:02:22.164Z,3.97
2023-06-19T16:04:50.025Z,3.90
2023-06-19T16:07:17.815Z,4.10
2023-06-19T16:09:55.307Z,3.90
2023-06-19T16:12:23.883Z,3.78
2023-06-19T16:14:51.581Z,4.45
2023-06-19T16:17:19.297Z,6.20
2023-06-19T16:19:48.481Z,3.63
2023-06-19T16:22:16.265Z,5.38
2023-06-19T16:24:44.054Z,4.68
2023-06-19T16:27:11.878Z,5.53
2023-06-19T16:29:39.595Z,4.35
2023-06-19T16:32:10.436Z,4.50
2023-06-19T16:34:38.944Z,3.92
2023-06-19T16:37:08.291Z,4.15
2023-06-19T16:39:36.080Z,3.92
2023-06-19T16:42:03.906Z,3.88
2023-06-19T16:44:31.659Z,3.83
2023-06-19T16:46:59.526Z,3.85
2023-06-19T16:49:27.290Z,3.85
2023-06-19T16:51:54.969Z,4.15
2023-06-19T16:54:24.144Z,4.05
2023-06-19T16:56:51.847Z,3.95
2023-06-19T16:59:19.513Z,3.95
2023-06-19T17:01:47.428Z,4.10
2023-06-19T17:04:15.177Z,4.18
2023-06-19T17:06:42.923Z,4.20
2023-06-19T17:09:10.612Z,4.97
2023-06-19T17:11:42.506Z,5.00
2023-06-19T17:14:10.697Z,5.18
2023-06-19T17:16:38.427Z,3.85
2023-06-19T17:19:06.613Z,4.50
2023-06-19T17:21:34.634Z,3.95
2023-06-19T17:24:02.479Z,4.22
2023-06-19T17:26:30.447Z,3.65
2023-06-19T17:28:59.957Z,3.70
2023-06-19T17:31:27.628Z,8.38
2023-06-19T17:33:56.413Z,3.92
2023-06-19T17:36:24.171Z,4.38
2023-06-19T17:38:51.931Z,3.70
2023-06-19T17:41:19.674Z,3.85
2023-06-19T17:43:47.420Z,3.60
2023-06-19T17:46:16.641Z,3.60
2023-06-19T17:48:44.367Z,3.63
2023-06-19T17:51:12.097Z,4.15
2023-06-19T17:53:40.618Z,3.40
2023-06-19T17:56:08.409Z,4.90
2023-06-19T17:58:36.227Z,4.43
2023-06-19T18:01:03.946Z,7.38
2023-06-19T18:03:33.124Z,4.00
2023-06-19T18:06:00.915Z,4.75
2023-06-19T18:08:28.643Z,3.63
2023-06-19T18:10:56.950Z,4.00
2023-06-19T18:13:24.686Z,3.97
2023-06-19T18:16:09.988Z,3.95
2023-06-19T18:18:40.937Z,3.70
2023-06-19T18:21:08.713Z,4.00
2023-06-19T18:23:36.471Z,3.95
2023-06-19T18:26:04.193Z,4.40
2023-06-19T18:28:31.906Z,3.60
2023-06-19T18:30:59.672Z,3.83
2023-06-19T18:33:27.625Z,3.63
2023-06-19T18:35:56.860Z,4.00
2023-06-19T18:38:24.717Z,4.35
2023-06-19T18:40:52.405Z,4.10
2023-06-19T18:43:20.104Z,4.20
2023-06-19T18:45:48.093Z,3.90
2023-06-19T18:48:15.919Z,4.15
2023-06-19T18:50:43.676Z,4.10
2023-06-19T18:53:12.866Z,4.15
2023-06-19T18:55:42.475Z,3.97
2023-06-19T18:58:11.794Z,3.97
2023-06-19T19:00:39.472Z,4.60
2023-06-19T19:03:08.486Z,4.90
2023-06-19T19:05:36.867Z,4.07
2023-06-19T19:08:04.865Z,4.00
2023-06-19T19:10:33.993Z,3.75
2023-06-19T19:13:03.565Z,4.15
2023-06-19T19:15:31.468Z,3.95
2023-06-19T19:17:59.237Z,5.00
2023-06-19T19:20:27.745Z,4.82
2023-06-19T19:22:55.594Z,4.35
2023-06-19T19:25:23.296Z,4.32
2023-06-19T19:27:52.389Z,4.35
2023-06-19T19:30:20.227Z,4.15
2023-06-19T19:32:48.083Z,3.92
2023-06-19T19:35:15.961Z,4.35
2023-06-19T19:37:43.652Z,4.55
2023-06-19T19:40:12.367Z,4.38
2023-06-19T19:42:40.088Z,4.47
2023-06-19T19:45:10.231Z,4.85
2023-06-19T19:47:37.953Z,5.22
2023-06-19T19:50:06.466Z,4.80
2023-06-19T19:52:34.150Z,4.38
2023-06-19T19:55:03.025Z,4.25
2023-06-19T19:57:30.829Z,4.30
2023-06-19T19:59:59.260Z,4.20
2023-06-19T20:02:28.422Z,3.80
2023-06-19T20:04:56.312Z,4.45
2023-06-19T20:07:25.022Z,4.38
2023-06-19T20:09:52.859Z,4.28
2023-06-19T20:12:22.253Z,3.97
2023-06-19T20:14:50.349Z,4.97
2023-06-19T20:17:18.099Z,4.20
2023-06-19T20:19:47.284Z,4.07
2023-06-19T20:22:15.075Z,4.80
2023-06-19T20:24:43.030Z,4.68
2023-06-19T20:27:12.159Z,4.35
2023-06-19T20:29:39.977Z,4.90
2023-06-19T20:32:08.698Z,4.13
2023-06-19T20:34:36.454Z,4.40
2023-06-19T20:37:06.074Z,4.70
2023-06-19T20:39:33.793Z,5.03
2023-06-19T20:42:03.602Z,4.90
2023-06-19T20:44:31.598Z,5.00
2023-06-19T20:47:01.628Z,4.47
2023-06-19T20:49:30.326Z,4.68
2023-06-19T20:51:58.102Z,5.35
2023-06-19T20:54:27.347Z,5.35
2023-06-19T20:56:55.136Z,4.60
2023-06-19T20:59:22.930Z,4.80
2023-06-19T21:01:50.693Z,4.43
2023-06-19T21:04:18.491Z,4.85
2023-06-19T21:06:46.344Z,4.85
2023-06-19T21:09:16.125Z,4.85
2023-06-19T21:11:46.278Z,5.15
2023-06-19T21:14:14.191Z,5.28
2023-06-19T21:16:42.448Z,5.47
2023-06-19T21:19:10.221Z,4.80
2023-06-19T21:21:38.038Z,5.18
2023-06-19T21:24:06.047Z,4.43
2023-06-19T21:26:34.035Z,4.88
2023-06-19T21:29:03.302Z,5.22
2023-06-19T21:31:31.037Z,5.35
2023-06-19T21:33:58.794Z,4.82
2023-06-19T21:36:26.555Z,4.80
2023-06-19T21:38:54.335Z,5.35
2023-06-19T21:41:22.484Z,5.63
2023-06-19T21:43:50.296Z,5.00
2023-06-19T21:46:19.516Z,5.25
2023-06-19T21:48:47.540Z,6.05
2023-06-19T21:51:15.306Z,5.43
2023-06-19T21:53:43.028Z,5.32
2023-06-19T21:56:10.752Z,5.35
2023-06-19T21:58:38.501Z,6.00
2023-06-19T22:01:06.317Z,5.53
2023-06-19T22:03:35.614Z,5.28
2023-06-19T22:06:03.833Z,4.88
2023-06-19T22:08:41.961Z,5.00
2023-06-19T22:11:10.744Z,5.32
2023-06-19T22:13:38.597Z,5.88
2023-06-19T22:16:06.307Z,5.25
2023-06-19T22:18:35.489Z,5.00
2023-06-19T22:21:03.331Z,5.85
2023-06-19T22:23:31.112Z,5.47
2023-06-19T22:25:58.968Z,5.47
2023-06-19T22:28:26.787Z,5.40
2023-06-19T22:30:54.505Z,5.47
2023-06-19T22:33:22.210Z,5.18
2023-06-19T22:35:51.689Z,4.80
2023-06-19T22:38:19.689Z,5.28
2023-06-19T22:40:47.471Z,5.47
2023-06-19T22:43:15.338Z,5.50
2023-06-19T22:45:43.444Z,5.45
2023-06-19T22:48:11.542Z,5.82
2023-06-19T22:50:39.375Z,6.13
2023-06-19T22:53:08.541Z,5.38
2023-06-19T22:55:36.346Z,6.03
2023-06-19T22:58:04.135Z,6.20
2023-06-19T23:00:31.880Z,5.68
2023-06-19T23:02:59.831Z,5.45
2023-06-19T23:05:27.913Z,5.47
2023-06-19T23:07:56.671Z,5.90
2023-06-19T23:10:25.763Z,5.70
2023-06-19T23:12:53.495Z,5.70
2023-06-19T23:15:21.354Z,5.47
2023-06-19T23:17:49.384Z,5.60
2023-06-19T23:20:18.583Z,5.30
2023-06-19T23:22:48.708Z,5.57
2023-06-19T23:25:16.514Z,5.40
2023-06-19T23:27:45.662Z,5.95
2023-06-19T23:30:13.698Z,5.75
2023-06-19T23:32:41.634Z,5.40
2023-06-19T23:35:10.292Z,5.50
2023-06-19T23:37:38.076Z,5.30
2023-06-19T23:40:08.861Z,5.38
2023-06-19T23:42:36.876Z,5.50
2023-06-19T23:45:06.824Z,5.60
2023-06-19T23:47:34.593Z,5.57
2023-06-19T23:50:02.361Z,5.32
2023-06-19T23:52:41.985Z,5.80
2023-06-19T23:55:11.370Z,5.78
2023-06-19T23:57:39.161Z,5.88
